Terminal Aerodrome Forecast
Issued by NWS Cleveland, OH

Home | Current Version | Previous Version | Graphics & Text | Print | Product List | Glossary Off
Versions: 1 2 3 4 5 6 7 8 9 10 11 12 13 14 15 16 17 18 19 20 21 22 23 24 25 26 27

000
FTUS41 KCLE 011311 AAA
TAFTOL
TAF AMD
KTOL 011311Z 0113/0212 VRB03KT 6SM BR SCT005
     FM011500 14006KT P6SM BKN015
     FM011900 16006KT P6SM VCSH BKN035
     FM020200 22003KT P6SM SCT015 BKN050=

USA.gov is the U.S. government's official web portal to all federal, state and local government web resources and services.